Terminal Aerodrome Forecast
Issued by NWS Rapid City, SD

Home | Current Version | Previous Version | Graphics & Text | Print | Product List | Glossary On
Versions: 1 2 3 4 5 6 7 8 9 10 11 12 13 14 15 16 17 18 19 20 21 22 23 24
035
FTUS43 KUNR 221159 CCA
TAFRAP
TAF COR
KRAP 221159Z 2212/2312 34010KT P6SM BKN040
      TEMPO 2212/2214 BKN018
     FM222000 18011KT P6SM SCT100 BKN200
     FM230200 28008KT P6SM OVC080=

USA.gov is the U.S. government's official web portal to all federal, state and local government web resources and services.